DLH224 EKCH-LOWI
Flight info
| Callsign | DLH224 |
|---|---|
| Flight time | 1h 33m |
| Altitude | 37000 |
| Route | SALLO M44 KOGIM M602 USEDU/N0483F380 DCT ADLIR/N0486F390 DCT OSKAN DCT MAREM/N0486F380 DCT RUDAP P31 DOSEL M736 TULSI TULSI3A |
| Aircraft | B789/H-SDE1E2E3FGHIJ2J3J4J5M1RWXY/LB1D1 |
Departure
| Time | 2026-04-22 18:23 |
|---|---|
| Airport | Copenhagen Kastrup Airport (EKCH) |
Arrival
| Time | 2026-04-22 19:57 |
|---|---|
| Airport | Innsbruck Airport (LOWI) |
| Time | Latitude | Longitude | Altitude | Speed | Heading |
|---|---|---|---|---|---|
| 2026-04-22 17:34 | 55.62574 | 12.64580 | 30 ft | 0 kts | 304° |
| 2026-04-22 18:07 | 55.62574 | 12.64583 | 25 ft | 4 kts | 332° |
| 2026-04-22 18:07 | 55.62585 | 12.64593 | 30 ft | 4 kts | 28° |
| 2026-04-22 18:07 | 55.62602 | 12.64625 | 30 ft | 4 kts | 52° |
| 2026-04-22 18:08 | 55.62617 | 12.64658 | 25 ft | 4 kts | 40° |
| 2026-04-22 18:08 | 55.62650 | 12.64665 | 31 ft | 6 kts | 192° |
| 2026-04-22 18:14 | 55.62649 | 12.64665 | 25 ft | 0 kts | 192° |
| 2026-04-22 18:15 | 55.62642 | 12.64662 | 29 ft | 3 kts | 191° |
| 2026-04-22 18:15 | 55.62607 | 12.64653 | 26 ft | 6 kts | 186° |
| 2026-04-22 18:16 | 55.62556 | 12.64649 | 30 ft | 7 kts | 178° |
| 2026-04-22 18:16 | 55.62505 | 12.64654 | 26 ft | 7 kts | 176° |
| 2026-04-22 18:16 | 55.62457 | 12.64663 | 28 ft | 8 kts | 174° |
| 2026-04-22 18:16 | 55.62398 | 12.64673 | 28 ft | 9 kts | 176° |
| 2026-04-22 18:17 | 55.62330 | 12.64706 | 27 ft | 10 kts | 139° |
| 2026-04-22 18:17 | 55.62285 | 12.64783 | 29 ft | 8 kts | 148° |
| 2026-04-22 18:17 | 55.62229 | 12.64792 | 29 ft | 9 kts | 197° |
| 2026-04-22 18:17 | 55.62171 | 12.64728 | 28 ft | 11 kts | 214° |
| 2026-04-22 18:18 | 55.62085 | 12.64625 | 31 ft | 18 kts | 213° |
| 2026-04-22 18:18 | 55.61975 | 12.64510 | 30 ft | 18 kts | 201° |
| 2026-04-22 18:18 | 55.61856 | 12.64519 | 27 ft | 17 kts | 169° |
| 2026-04-22 18:18 | 55.61730 | 12.64562 | 29 ft | 19 kts | 171° |
| 2026-04-22 18:19 | 55.61612 | 12.64490 | 29 ft | 19 kts | 213° |
| 2026-04-22 18:19 | 55.61498 | 12.64362 | 27 ft | 19 kts | 212° |
| 2026-04-22 18:19 | 55.61378 | 12.64226 | 24 ft | 21 kts | 213° |
| 2026-04-22 18:19 | 55.61252 | 12.64082 | 22 ft | 22 kts | 213° |
| 2026-04-22 18:20 | 55.61126 | 12.63934 | 26 ft | 21 kts | 213° |
| 2026-04-22 18:20 | 55.61003 | 12.63793 | 29 ft | 20 kts | 213° |
| 2026-04-22 18:20 | 55.60885 | 12.63657 | 29 ft | 21 kts | 213° |
| 2026-04-22 18:20 | 55.60762 | 12.63515 | 29 ft | 22 kts | 213° |
| 2026-04-22 18:21 | 55.60636 | 12.63362 | 31 ft | 22 kts | 220° |
| 2026-04-22 18:21 | 55.60521 | 12.63184 | 28 ft | 21 kts | 221° |
| 2026-04-22 18:21 | 55.60415 | 12.63138 | 31 ft | 14 kts | 147° |
| 2026-04-22 18:21 | 55.60348 | 12.63262 | 34 ft | 13 kts | 125° |
| 2026-04-22 18:22 | 55.60352 | 12.63366 | 35 ft | 8 kts | 58° |
| 2026-04-22 18:22 | 55.60378 | 12.63414 | 33 ft | 0 kts | 41° |
| 2026-04-22 18:22 | 55.60389 | 12.63431 | 33 ft | 0 kts | 41° |
| 2026-04-22 18:22 | 55.60526 | 12.63643 | 30 ft | 58 kts | 41° |
| 2026-04-22 18:23 | 55.61004 | 12.64379 | 30 ft | 123 kts | 41° |
| 2026-04-22 18:23 | 55.61779 | 12.65584 | 99 ft | 167 kts | 39° |
| 2026-04-22 18:23 | 55.62664 | 12.67003 | 692 ft | 178 kts | 36° |
| 2026-04-22 18:24 | 55.64587 | 12.69929 | 2134 ft | 202 kts | 33° |
| 2026-04-22 18:24 | 55.65750 | 12.71589 | 2497 ft | 229 kts | 32° |
| 2026-04-22 18:24 | 55.68231 | 12.75412 | 4105 ft | 238 kts | 34° |
| 2026-04-22 18:25 | 55.69468 | 12.77386 | 4972 ft | 244 kts | 44° |
| 2026-04-22 18:25 | 55.70227 | 12.80135 | 5819 ft | 255 kts | 70° |
| 2026-04-22 18:25 | 55.70247 | 12.83430 | 6389 ft | 288 kts | 103° |
| 2026-04-22 18:26 | 55.67561 | 12.88835 | 7015 ft | 309 kts | 156° |
| 2026-04-22 18:26 | 55.65557 | 12.90131 | 6995 ft | 305 kts | 163° |
| 2026-04-22 18:26 | 55.63527 | 12.91176 | 6994 ft | 304 kts | 165° |
| 2026-04-22 18:26 | 55.61457 | 12.91772 | 6989 ft | 300 kts | 185° |
| 2026-04-22 18:27 | 55.59464 | 12.90820 | 7338 ft | 294 kts | 213° |
| 2026-04-22 18:27 | 55.57876 | 12.88680 | 8352 ft | 288 kts | 230° |
| 2026-04-22 18:27 | 55.56356 | 12.86272 | 9102 ft | 301 kts | 211° |
| 2026-04-22 18:27 | 55.54344 | 12.85146 | 9987 ft | 310 kts | 186° |
| 2026-04-22 18:28 | 55.52215 | 12.85657 | 10781 ft | 312 kts | 157° |
| 2026-04-22 18:28 | 55.50252 | 12.87304 | 11589 ft | 314 kts | 152° |
| 2026-04-22 18:28 | 55.48298 | 12.89062 | 12465 ft | 317 kts | 151° |
| 2026-04-22 18:28 | 55.46324 | 12.90845 | 13270 ft | 321 kts | 151° |
| 2026-04-22 18:29 | 55.44323 | 12.92617 | 14137 ft | 323 kts | 152° |
| 2026-04-22 18:29 | 55.42332 | 12.94370 | 14879 ft | 325 kts | 151° |
| 2026-04-22 18:29 | 55.40305 | 12.96163 | 15635 ft | 327 kts | 151° |
| 2026-04-22 18:29 | 55.38263 | 12.97973 | 16375 ft | 330 kts | 151° |
| 2026-04-22 18:30 | 55.36207 | 12.99790 | 17124 ft | 332 kts | 151° |
| 2026-04-22 18:30 | 55.32048 | 13.03455 | 18567 ft | 337 kts | 150° |
| 2026-04-22 18:30 | 55.29942 | 13.05308 | 19129 ft | 342 kts | 150° |
| 2026-04-22 18:31 | 55.27770 | 13.07223 | 19223 ft | 359 kts | 150° |
| 2026-04-22 18:31 | 55.25468 | 13.09248 | 19241 ft | 381 kts | 150° |
| 2026-04-22 18:31 | 55.23035 | 13.11379 | 19239 ft | 399 kts | 151° |
| 2026-04-22 18:31 | 55.20530 | 13.13566 | 19231 ft | 404 kts | 151° |
| 2026-04-22 18:32 | 55.18008 | 13.15767 | 19232 ft | 405 kts | 151° |
| 2026-04-22 18:32 | 55.15486 | 13.17970 | 19236 ft | 406 kts | 151° |
| 2026-04-22 18:32 | 55.12954 | 13.20179 | 19230 ft | 406 kts | 151° |
| 2026-04-22 18:32 | 55.10425 | 13.22379 | 19232 ft | 406 kts | 151° |
| 2026-04-22 18:33 | 55.07901 | 13.24573 | 19233 ft | 406 kts | 151° |
| 2026-04-22 18:33 | 55.05364 | 13.26776 | 19227 ft | 409 kts | 151° |
| 2026-04-22 18:33 | 55.02829 | 13.28973 | 19227 ft | 405 kts | 151° |
| 2026-04-22 18:33 | 55.00299 | 13.31161 | 19225 ft | 407 kts | 151° |
| 2026-04-22 18:34 | 54.97757 | 13.33359 | 19224 ft | 406 kts | 151° |
| 2026-04-22 18:34 | 54.95236 | 13.35535 | 19225 ft | 406 kts | 151° |
| 2026-04-22 18:34 | 54.92702 | 13.37699 | 19228 ft | 405 kts | 153° |
| 2026-04-22 18:34 | 54.89986 | 13.39073 | 19225 ft | 410 kts | 168° |
| 2026-04-22 18:35 | 54.87163 | 13.39880 | 19224 ft | 412 kts | 169° |
| 2026-04-22 18:35 | 54.84300 | 13.40318 | 19470 ft | 415 kts | 176° |
| 2026-04-22 18:35 | 54.81419 | 13.40414 | 20106 ft | 415 kts | 178° |
| 2026-04-22 18:35 | 54.78520 | 13.40496 | 20597 ft | 418 kts | 176° |
| 2026-04-22 18:36 | 54.75609 | 13.40695 | 21167 ft | 419 kts | 175° |
| 2026-04-22 18:36 | 54.72686 | 13.40920 | 21659 ft | 422 kts | 175° |
| 2026-04-22 18:36 | 54.69739 | 13.41093 | 22140 ft | 425 kts | 176° |
| 2026-04-22 18:36 | 54.66775 | 13.41247 | 22612 ft | 427 kts | 175° |
| 2026-04-22 18:37 | 54.63791 | 13.41423 | 23067 ft | 430 kts | 175° |
| 2026-04-22 18:37 | 54.60793 | 13.41614 | 23521 ft | 432 kts | 175° |
| 2026-04-22 18:37 | 54.58801 | 13.41737 | 23801 ft | 434 kts | 175° |
| 2026-04-22 18:37 | 54.54750 | 13.41973 | 24286 ft | 437 kts | 175° |
| 2026-04-22 18:38 | 54.51706 | 13.42152 | 24649 ft | 439 kts | 175° |
| 2026-04-22 18:38 | 54.48658 | 13.42336 | 25069 ft | 438 kts | 175° |
| 2026-04-22 18:38 | 54.45603 | 13.42518 | 25385 ft | 441 kts | 175° |
| 2026-04-22 18:39 | 54.39451 | 13.42881 | 26048 ft | 444 kts | 174° |
| 2026-04-22 18:39 | 54.36353 | 13.43065 | 26383 ft | 446 kts | 174° |
| 2026-04-22 18:39 | 54.33242 | 13.43249 | 26720 ft | 448 kts | 174° |
| 2026-04-22 18:39 | 54.30108 | 13.43435 | 26989 ft | 452 kts | 174° |
| 2026-04-22 18:40 | 54.26959 | 13.43619 | 27324 ft | 454 kts | 173° |
| 2026-04-22 18:40 | 54.23798 | 13.43804 | 27723 ft | 455 kts | 173° |
| 2026-04-22 18:40 | 54.20634 | 13.43990 | 28085 ft | 456 kts | 173° |
| 2026-04-22 18:40 | 54.17483 | 13.44176 | 28405 ft | 458 kts | 173° |
| 2026-04-22 18:41 | 54.14262 | 13.44364 | 28735 ft | 460 kts | 173° |
| 2026-04-22 18:41 | 54.11053 | 13.44551 | 29068 ft | 462 kts | 172° |
| 2026-04-22 18:41 | 54.07829 | 13.44739 | 29407 ft | 464 kts | 172° |
| 2026-04-22 18:41 | 54.04593 | 13.44927 | 29747 ft | 466 kts | 172° |
| 2026-04-22 18:42 | 54.01341 | 13.45117 | 30074 ft | 469 kts | 172° |
| 2026-04-22 18:42 | 53.98081 | 13.45305 | 30478 ft | 469 kts | 171° |
| 2026-04-22 18:42 | 53.94827 | 13.45491 | 30861 ft | 469 kts | 171° |
| 2026-04-22 18:42 | 53.91596 | 13.45682 | 31121 ft | 471 kts | 171° |
| 2026-04-22 18:43 | 53.88310 | 13.45874 | 31408 ft | 474 kts | 171° |
| 2026-04-22 18:43 | 53.85010 | 13.46062 | 31689 ft | 476 kts | 171° |
| 2026-04-22 18:43 | 53.81692 | 13.46252 | 31959 ft | 478 kts | 171° |
| 2026-04-22 18:43 | 53.78364 | 13.46444 | 32246 ft | 480 kts | 171° |
| 2026-04-22 18:44 | 53.75016 | 13.46637 | 32524 ft | 482 kts | 171° |
| 2026-04-22 18:44 | 53.71659 | 13.46828 | 32907 ft | 483 kts | 170° |
| 2026-04-22 18:44 | 53.68294 | 13.47019 | 33217 ft | 484 kts | 170° |
| 2026-04-22 18:44 | 53.66023 | 13.47149 | 33500 ft | 484 kts | 170° |
| 2026-04-22 18:45 | 53.62664 | 13.47341 | 33925 ft | 483 kts | 169° |
| 2026-04-22 18:45 | 53.59307 | 13.47532 | 34302 ft | 482 kts | 169° |
| 2026-04-22 18:45 | 53.55956 | 13.47723 | 34638 ft | 482 kts | 170° |
| 2026-04-22 18:45 | 53.52602 | 13.47914 | 34953 ft | 482 kts | 170° |
| 2026-04-22 18:46 | 53.49250 | 13.48104 | 35255 ft | 482 kts | 170° |
| 2026-04-22 18:46 | 53.45943 | 13.48288 | 35623 ft | 481 kts | 170° |
| 2026-04-22 18:46 | 53.42597 | 13.48480 | 35949 ft | 481 kts | 171° |
| 2026-04-22 18:46 | 53.39249 | 13.48670 | 36239 ft | 482 kts | 171° |
| 2026-04-22 18:47 | 53.35896 | 13.48859 | 36533 ft | 482 kts | 171° |
| 2026-04-22 18:47 | 53.32542 | 13.49047 | 36810 ft | 483 kts | 171° |
| 2026-04-22 18:47 | 53.29185 | 13.49235 | 37118 ft | 483 kts | 172° |
| 2026-04-22 18:47 | 53.25826 | 13.49423 | 37431 ft | 483 kts | 172° |
| 2026-04-22 18:48 | 53.22469 | 13.49612 | 37752 ft | 483 kts | 172° |
| 2026-04-22 18:48 | 53.19104 | 13.49801 | 37919 ft | 486 kts | 172° |
| 2026-04-22 18:48 | 53.15723 | 13.49990 | 38180 ft | 486 kts | 173° |
| 2026-04-22 18:48 | 53.12332 | 13.50178 | 38254 ft | 490 kts | 173° |
| 2026-04-22 18:49 | 53.05521 | 13.50553 | 38259 ft | 486 kts | 173° |
| 2026-04-22 18:49 | 52.98767 | 13.50931 | 38265 ft | 485 kts | 173° |
| 2026-04-22 18:50 | 52.92024 | 13.51303 | 38275 ft | 485 kts | 173° |
| 2026-04-22 18:50 | 52.85273 | 13.51675 | 38271 ft | 486 kts | 173° |
| 2026-04-22 18:51 | 52.78516 | 13.52046 | 38266 ft | 486 kts | 173° |
| 2026-04-22 18:51 | 52.71752 | 13.52416 | 38272 ft | 486 kts | 173° |
| 2026-04-22 18:52 | 52.64986 | 13.52785 | 38272 ft | 487 kts | 173° |
| 2026-04-22 18:52 | 52.58212 | 13.53154 | 38272 ft | 487 kts | 173° |
| 2026-04-22 18:53 | 52.51441 | 13.53521 | 38259 ft | 486 kts | 173° |
| 2026-04-22 18:53 | 52.44573 | 13.53893 | 38275 ft | 487 kts | 173° |
| 2026-04-22 18:54 | 52.37899 | 13.54252 | 38271 ft | 487 kts | 173° |
| 2026-04-22 18:54 | 52.31132 | 13.54615 | 38269 ft | 486 kts | 173° |
| 2026-04-22 18:55 | 52.24382 | 13.54977 | 38265 ft | 485 kts | 173° |
| 2026-04-22 18:55 | 52.17626 | 13.55340 | 38282 ft | 489 kts | 173° |
| 2026-04-22 18:56 | 52.10818 | 13.55700 | 38279 ft | 489 kts | 173° |
| 2026-04-22 18:56 | 52.04056 | 13.56060 | 38285 ft | 489 kts | 173° |
| 2026-04-22 18:57 | 51.97256 | 13.56420 | 38293 ft | 489 kts | 173° |
| 2026-04-22 18:57 | 51.90447 | 13.56779 | 38271 ft | 490 kts | 173° |
| 2026-04-22 18:58 | 51.83629 | 13.57137 | 38259 ft | 490 kts | 173° |
| 2026-04-22 18:58 | 51.76807 | 13.57495 | 38264 ft | 490 kts | 173° |
| 2026-04-22 18:59 | 51.69988 | 13.57853 | 38284 ft | 492 kts | 174° |
| 2026-04-22 18:59 | 51.63133 | 13.58209 | 38286 ft | 493 kts | 174° |
| 2026-04-22 19:00 | 51.56285 | 13.58564 | 38291 ft | 492 kts | 174° |
| 2026-04-22 19:00 | 51.49440 | 13.58920 | 38285 ft | 493 kts | 173° |
| 2026-04-22 19:01 | 51.42566 | 13.59275 | 38291 ft | 495 kts | 174° |
| 2026-04-22 19:01 | 51.35691 | 13.59629 | 38293 ft | 494 kts | 174° |
| 2026-04-22 19:02 | 51.28829 | 13.59981 | 38282 ft | 493 kts | 174° |
| 2026-04-22 19:02 | 51.21962 | 13.60333 | 38274 ft | 494 kts | 174° |
| 2026-04-22 19:03 | 51.15081 | 13.60684 | 38269 ft | 495 kts | 174° |
| 2026-04-22 19:03 | 51.08195 | 13.61035 | 38273 ft | 495 kts | 174° |
| 2026-04-22 19:04 | 51.01306 | 13.61384 | 38285 ft | 495 kts | 174° |
| 2026-04-22 19:04 | 50.94392 | 13.61735 | 38286 ft | 498 kts | 174° |
| 2026-04-22 19:05 | 50.87526 | 13.62080 | 38298 ft | 497 kts | 174° |
| 2026-04-22 19:05 | 50.80620 | 13.62428 | 38299 ft | 497 kts | 174° |
| 2026-04-22 19:06 | 50.73699 | 13.62775 | 38302 ft | 498 kts | 175° |
| 2026-04-22 19:06 | 50.70232 | 13.62546 | 38329 ft | 502 kts | 186° |
| 2026-04-22 19:07 | 50.63319 | 13.60802 | 38309 ft | 504 kts | 186° |
| 2026-04-22 19:07 | 50.56413 | 13.59042 | 38311 ft | 503 kts | 186° |
| 2026-04-22 19:08 | 50.49503 | 13.57311 | 38304 ft | 503 kts | 186° |
| 2026-04-22 19:08 | 50.42595 | 13.55566 | 38306 ft | 503 kts | 186° |
| 2026-04-22 19:09 | 50.35682 | 13.53838 | 38305 ft | 503 kts | 186° |
| 2026-04-22 19:09 | 50.29934 | 13.52398 | 38306 ft | 503 kts | 186° |
| 2026-04-22 19:10 | 50.21843 | 13.50383 | 38307 ft | 504 kts | 186° |
| 2026-04-22 19:10 | 50.14917 | 13.48661 | 38312 ft | 504 kts | 186° |
| 2026-04-22 19:11 | 50.07982 | 13.46944 | 38319 ft | 505 kts | 187° |
| 2026-04-22 19:11 | 50.01029 | 13.45226 | 38312 ft | 506 kts | 187° |
| 2026-04-22 19:12 | 49.94108 | 13.43520 | 37326 ft | 505 kts | 186° |
| 2026-04-22 19:12 | 49.90639 | 13.42668 | 36593 ft | 504 kts | 185° |
| 2026-04-22 19:12 | 49.87191 | 13.41821 | 35906 ft | 502 kts | 185° |
| 2026-04-22 19:12 | 49.83747 | 13.40978 | 35161 ft | 501 kts | 185° |
| 2026-04-22 19:13 | 49.80305 | 13.40135 | 34456 ft | 500 kts | 184° |
| 2026-04-22 19:13 | 49.76875 | 13.39296 | 33626 ft | 498 kts | 184° |
| 2026-04-22 19:13 | 49.73457 | 13.38463 | 32753 ft | 496 kts | 184° |
| 2026-04-22 19:13 | 49.70055 | 13.37634 | 31876 ft | 494 kts | 183° |
| 2026-04-22 19:14 | 49.66676 | 13.36810 | 31321 ft | 486 kts | 183° |
| 2026-04-22 19:14 | 49.63406 | 13.36009 | 31299 ft | 469 kts | 183° |
| 2026-04-22 19:14 | 49.60244 | 13.35245 | 31306 ft | 467 kts | 182° |
| 2026-04-22 19:15 | 49.54792 | 13.33942 | 31302 ft | 477 kts | 183° |
| 2026-04-22 19:15 | 49.47179 | 13.32087 | 31310 ft | 476 kts | 183° |
| 2026-04-22 19:16 | 49.40633 | 13.30519 | 31304 ft | 478 kts | 183° |
| 2026-04-22 19:16 | 49.34041 | 13.28931 | 31314 ft | 479 kts | 183° |
| 2026-04-22 19:17 | 49.27461 | 13.27356 | 31311 ft | 478 kts | 183° |
| 2026-04-22 19:17 | 49.21065 | 13.24255 | 31321 ft | 492 kts | 201° |
| 2026-04-22 19:18 | 49.14892 | 13.19627 | 31304 ft | 496 kts | 201° |
| 2026-04-22 19:18 | 49.08713 | 13.14989 | 31314 ft | 494 kts | 201° |
| 2026-04-22 19:19 | 49.02533 | 13.10405 | 31289 ft | 495 kts | 201° |
| 2026-04-22 19:19 | 48.96346 | 13.05803 | 31305 ft | 494 kts | 202° |
| 2026-04-22 19:20 | 48.90174 | 13.01237 | 31296 ft | 493 kts | 202° |
| 2026-04-22 19:20 | 48.84005 | 12.96680 | 31293 ft | 493 kts | 202° |
| 2026-04-22 19:21 | 48.77821 | 12.92130 | 31288 ft | 495 kts | 202° |
| 2026-04-22 19:21 | 48.71878 | 12.86844 | 31302 ft | 502 kts | 218° |
| 2026-04-22 19:22 | 48.66710 | 12.79717 | 31294 ft | 502 kts | 220° |
| 2026-04-22 19:22 | 48.64165 | 12.76165 | 30591 ft | 498 kts | 220° |
| 2026-04-22 19:22 | 48.61617 | 12.72643 | 29943 ft | 493 kts | 219° |
| 2026-04-22 19:22 | 48.59098 | 12.69180 | 29248 ft | 488 kts | 220° |
| 2026-04-22 19:23 | 48.56613 | 12.65732 | 28524 ft | 483 kts | 221° |
| 2026-04-22 19:23 | 48.54157 | 12.62303 | 27851 ft | 478 kts | 221° |
| 2026-04-22 19:23 | 48.51726 | 12.58932 | 27178 ft | 473 kts | 221° |
| 2026-04-22 19:23 | 48.49311 | 12.55604 | 26570 ft | 467 kts | 221° |
| 2026-04-22 19:24 | 48.46969 | 12.52373 | 26670 ft | 450 kts | 221° |
| 2026-04-22 19:24 | 48.44652 | 12.49174 | 26429 ft | 455 kts | 221° |
| 2026-04-22 19:24 | 48.42263 | 12.46087 | 26097 ft | 449 kts | 218° |
| 2026-04-22 19:24 | 48.39890 | 12.43053 | 25775 ft | 446 kts | 220° |
| 2026-04-22 19:25 | 48.37556 | 12.40005 | 25442 ft | 443 kts | 220° |
| 2026-04-22 19:25 | 48.35217 | 12.37011 | 25117 ft | 441 kts | 219° |
| 2026-04-22 19:25 | 48.32877 | 12.34062 | 24806 ft | 438 kts | 219° |
| 2026-04-22 19:25 | 48.30552 | 12.31114 | 24483 ft | 436 kts | 219° |
| 2026-04-22 19:26 | 48.28280 | 12.28211 | 24283 ft | 431 kts | 219° |
| 2026-04-22 19:26 | 48.25994 | 12.25302 | 24092 ft | 433 kts | 219° |
| 2026-04-22 19:26 | 48.23686 | 12.22383 | 23734 ft | 434 kts | 219° |
| 2026-04-22 19:26 | 48.21388 | 12.19477 | 23310 ft | 430 kts | 219° |
| 2026-04-22 19:27 | 48.19113 | 12.16597 | 22894 ft | 426 kts | 219° |
| 2026-04-22 19:27 | 48.16860 | 12.13748 | 22470 ft | 422 kts | 219° |
| 2026-04-22 19:27 | 48.14619 | 12.10922 | 22066 ft | 419 kts | 219° |
| 2026-04-22 19:27 | 48.12394 | 12.08120 | 21672 ft | 417 kts | 219° |
| 2026-04-22 19:28 | 48.10186 | 12.05340 | 21277 ft | 414 kts | 220° |
| 2026-04-22 19:28 | 48.07987 | 12.02574 | 20886 ft | 412 kts | 220° |
| 2026-04-22 19:28 | 48.05798 | 11.99824 | 20503 ft | 410 kts | 220° |
| 2026-04-22 19:28 | 48.03621 | 11.97094 | 20118 ft | 407 kts | 220° |
| 2026-04-22 19:29 | 48.01455 | 11.94381 | 19736 ft | 405 kts | 220° |
| 2026-04-22 19:29 | 47.99299 | 11.91682 | 19301 ft | 404 kts | 220° |
| 2026-04-22 19:29 | 47.97148 | 11.88992 | 18855 ft | 401 kts | 220° |
| 2026-04-22 19:29 | 47.95021 | 11.86336 | 18412 ft | 398 kts | 220° |
| 2026-04-22 19:30 | 47.94302 | 11.85439 | 18244 ft | 396 kts | 220° |
| 2026-04-22 19:30 | 47.90703 | 11.81313 | 17430 ft | 390 kts | 206° |
| 2026-04-22 19:30 | 47.88151 | 11.80019 | 16984 ft | 385 kts | 187° |
| 2026-04-22 19:30 | 47.85520 | 11.79721 | 16542 ft | 380 kts | 181° |
| 2026-04-22 19:31 | 47.82877 | 11.79565 | 16093 ft | 379 kts | 179° |
| 2026-04-22 19:31 | 47.80249 | 11.79452 | 15636 ft | 377 kts | 180° |
| 2026-04-22 19:31 | 47.77629 | 11.79311 | 15186 ft | 375 kts | 180° |
| 2026-04-22 19:31 | 47.75032 | 11.79150 | 14745 ft | 372 kts | 180° |
| 2026-04-22 19:32 | 47.72480 | 11.78999 | 14369 ft | 362 kts | 180° |
| 2026-04-22 19:32 | 47.70827 | 11.78969 | 14109 ft | 356 kts | 173° |
| 2026-04-22 19:32 | 47.68465 | 11.79820 | 13742 ft | 347 kts | 157° |
| 2026-04-22 19:32 | 47.66196 | 11.81057 | 13345 ft | 347 kts | 156° |
| 2026-04-22 19:33 | 47.63985 | 11.82359 | 13279 ft | 337 kts | 152° |
| 2026-04-22 19:33 | 47.61945 | 11.84049 | 13279 ft | 340 kts | 153° |
| 2026-04-22 19:33 | 47.59602 | 11.84747 | 13301 ft | 352 kts | 181° |
| 2026-04-22 19:33 | 47.57229 | 11.83882 | 13317 ft | 357 kts | 207° |
| 2026-04-22 19:34 | 47.55293 | 11.81621 | 13308 ft | 356 kts | 233° |
| 2026-04-22 19:34 | 47.54169 | 11.78410 | 13281 ft | 351 kts | 257° |
| 2026-04-22 19:34 | 47.53719 | 11.74884 | 13306 ft | 349 kts | 265° |
| 2026-04-22 19:34 | 47.53477 | 11.71294 | 13298 ft | 350 kts | 268° |
| 2026-04-22 19:35 | 47.53300 | 11.67704 | 13297 ft | 350 kts | 269° |
| 2026-04-22 19:35 | 47.53142 | 11.64105 | 13297 ft | 350 kts | 269° |
| 2026-04-22 19:35 | 47.52989 | 11.60510 | 13300 ft | 350 kts | 269° |
| 2026-04-22 19:35 | 47.52837 | 11.56922 | 13295 ft | 349 kts | 269° |
| 2026-04-22 19:36 | 47.52686 | 11.53326 | 13280 ft | 350 kts | 269° |
| 2026-04-22 19:36 | 47.52533 | 11.49751 | 13278 ft | 342 kts | 269° |
| 2026-04-22 19:36 | 47.52384 | 11.46340 | 13270 ft | 322 kts | 269° |
| 2026-04-22 19:36 | 47.52237 | 11.43142 | 13265 ft | 302 kts | 269° |
| 2026-04-22 19:37 | 47.52091 | 11.40135 | 13255 ft | 285 kts | 269° |
| 2026-04-22 19:37 | 47.51948 | 11.37254 | 13258 ft | 278 kts | 269° |
| 2026-04-22 19:37 | 47.51802 | 11.34405 | 13267 ft | 277 kts | 269° |
| 2026-04-22 19:37 | 47.51657 | 11.31562 | 13270 ft | 277 kts | 269° |
| 2026-04-22 19:38 | 47.51516 | 11.28705 | 13260 ft | 280 kts | 269° |
| 2026-04-22 19:38 | 47.51377 | 11.25832 | 13273 ft | 280 kts | 269° |
| 2026-04-22 19:38 | 47.51237 | 11.22955 | 13262 ft | 280 kts | 269° |
| 2026-04-22 19:38 | 47.51098 | 11.20079 | 13264 ft | 280 kts | 269° |
| 2026-04-22 19:39 | 47.50959 | 11.17211 | 13265 ft | 279 kts | 269° |
| 2026-04-22 19:39 | 47.50656 | 11.14376 | 13276 ft | 282 kts | 257° |
| 2026-04-22 19:39 | 47.49932 | 11.11676 | 13280 ft | 283 kts | 246° |
| 2026-04-22 19:39 | 47.49053 | 11.09051 | 13281 ft | 286 kts | 244° |
| 2026-04-22 19:40 | 47.48140 | 11.06445 | 13278 ft | 285 kts | 244° |
| 2026-04-22 19:40 | 47.47224 | 11.03850 | 13284 ft | 284 kts | 244° |
| 2026-04-22 19:40 | 47.46310 | 11.01270 | 13284 ft | 283 kts | 244° |
| 2026-04-22 19:40 | 47.45494 | 10.98634 | 13279 ft | 282 kts | 251° |
| 2026-04-22 19:41 | 47.44838 | 10.95906 | 13283 ft | 282 kts | 253° |
| 2026-04-22 19:41 | 47.44214 | 10.93159 | 13269 ft | 281 kts | 253° |
| 2026-04-22 19:41 | 47.43597 | 10.90419 | 13277 ft | 282 kts | 254° |
| 2026-04-22 19:41 | 47.42978 | 10.87670 | 13267 ft | 282 kts | 253° |
| 2026-04-22 19:42 | 47.42373 | 10.84936 | 13260 ft | 279 kts | 254° |
| 2026-04-22 19:42 | 47.41775 | 10.82198 | 13270 ft | 281 kts | 254° |
| 2026-04-22 19:42 | 47.41174 | 10.79441 | 13270 ft | 282 kts | 254° |
| 2026-04-22 19:42 | 47.40576 | 10.76690 | 13267 ft | 281 kts | 254° |
| 2026-04-22 19:43 | 47.39383 | 10.71228 | 12840 ft | 280 kts | 254° |
| 2026-04-22 19:43 | 47.38790 | 10.68504 | 12603 ft | 278 kts | 253° |
| 2026-04-22 19:43 | 47.38204 | 10.65794 | 12339 ft | 276 kts | 254° |
| 2026-04-22 19:44 | 47.37623 | 10.63098 | 12096 ft | 275 kts | 253° |
| 2026-04-22 19:44 | 47.37048 | 10.60416 | 11820 ft | 273 kts | 254° |
| 2026-04-22 19:44 | 47.36480 | 10.57748 | 11576 ft | 272 kts | 254° |
| 2026-04-22 19:44 | 47.35922 | 10.55130 | 11483 ft | 260 kts | 254° |
| 2026-04-22 19:45 | 47.35247 | 10.52774 | 11442 ft | 244 kts | 229° |
| 2026-04-22 19:45 | 47.33921 | 10.51500 | 11522 ft | 236 kts | 201° |
| 2026-04-22 19:45 | 47.32319 | 10.50315 | 11594 ft | 273 kts | 204° |
| 2026-04-22 19:45 | 47.30461 | 10.49827 | 11626 ft | 270 kts | 172° |
| 2026-04-22 19:46 | 47.28830 | 10.50766 | 11544 ft | 242 kts | 138° |
| 2026-04-22 19:46 | 47.27858 | 10.52720 | 10847 ft | 242 kts | 105° |
| 2026-04-22 19:46 | 47.27808 | 10.55019 | 10921 ft | 215 kts | 80° |
| 2026-04-22 19:46 | 47.27969 | 10.57161 | 11127 ft | 208 kts | 84° |
| 2026-04-22 19:47 | 47.28098 | 10.59334 | 11470 ft | 221 kts | 83° |
| 2026-04-22 19:47 | 47.28274 | 10.61603 | 11611 ft | 222 kts | 80° |
| 2026-04-22 19:47 | 47.28524 | 10.63766 | 11490 ft | 207 kts | 78° |
| 2026-04-22 19:47 | 47.28775 | 10.65807 | 11481 ft | 201 kts | 78° |
| 2026-04-22 19:48 | 47.29003 | 10.67833 | 11491 ft | 200 kts | 81° |
| 2026-04-22 19:48 | 47.29058 | 10.69882 | 11484 ft | 201 kts | 84° |
| 2026-04-22 19:48 | 47.29155 | 10.71910 | 11517 ft | 198 kts | 84° |
| 2026-04-22 19:48 | 47.29249 | 10.73983 | 11499 ft | 202 kts | 85° |
| 2026-04-22 19:49 | 47.29328 | 10.76027 | 11513 ft | 199 kts | 85° |
| 2026-04-22 19:49 | 47.29409 | 10.78095 | 11503 ft | 203 kts | 85° |
| 2026-04-22 19:49 | 47.29482 | 10.80161 | 11508 ft | 201 kts | 84° |
| 2026-04-22 19:49 | 47.29560 | 10.82212 | 11510 ft | 201 kts | 84° |
| 2026-04-22 19:50 | 47.29641 | 10.84269 | 11514 ft | 201 kts | 84° |
| 2026-04-22 19:50 | 47.29722 | 10.86321 | 11516 ft | 201 kts | 84° |
| 2026-04-22 19:50 | 47.29802 | 10.88380 | 11513 ft | 202 kts | 84° |
| 2026-04-22 19:50 | 47.29882 | 10.90445 | 11507 ft | 201 kts | 84° |
| 2026-04-22 19:51 | 47.29961 | 10.92498 | 11506 ft | 200 kts | 84° |
| 2026-04-22 19:51 | 47.30039 | 10.94542 | 11502 ft | 200 kts | 84° |
| 2026-04-22 19:51 | 47.30117 | 10.96588 | 11498 ft | 200 kts | 84° |
| 2026-04-22 19:51 | 47.30194 | 10.98623 | 11400 ft | 197 kts | 84° |
| 2026-04-22 19:52 | 47.30272 | 11.00656 | 10989 ft | 201 kts | 84° |
| 2026-04-22 19:52 | 47.30352 | 11.02751 | 10481 ft | 210 kts | 84° |
| 2026-04-22 19:52 | 47.30431 | 11.04887 | 10179 ft | 207 kts | 84° |
| 2026-04-22 19:52 | 47.30513 | 11.07084 | 9388 ft | 223 kts | 85° |
| 2026-04-22 19:53 | 47.30376 | 11.09304 | 8816 ft | 215 kts | 107° |
| 2026-04-22 19:53 | 47.29782 | 11.11296 | 8213 ft | 209 kts | 111° |
| 2026-04-22 19:53 | 47.29221 | 11.13222 | 7735 ft | 200 kts | 110° |
| 2026-04-22 19:53 | 47.28694 | 11.15038 | 7237 ft | 192 kts | 111° |
| 2026-04-22 19:54 | 47.28176 | 11.16820 | 6716 ft | 187 kts | 112° |
| 2026-04-22 19:54 | 47.27672 | 11.18541 | 6086 ft | 180 kts | 112° |
| 2026-04-22 19:54 | 47.27186 | 11.20203 | 5308 ft | 174 kts | 112° |
| 2026-04-22 19:54 | 47.26713 | 11.21824 | 4590 ft | 168 kts | 111° |
| 2026-04-22 19:55 | 47.26265 | 11.23371 | 4001 ft | 160 kts | 111° |
| 2026-04-22 19:55 | 47.25846 | 11.24839 | 3407 ft | 150 kts | 112° |
| 2026-04-22 19:55 | 47.25439 | 11.26231 | 2962 ft | 144 kts | 111° |
| 2026-04-22 19:55 | 47.25326 | 11.27681 | 2582 ft | 145 kts | 78° |
| 2026-04-22 19:56 | 47.25456 | 11.29135 | 2509 ft | 149 kts | 82° |
| 2026-04-22 19:56 | 47.25614 | 11.30656 | 2324 ft | 146 kts | 79° |
| 2026-04-22 19:56 | 47.25770 | 11.32105 | 2089 ft | 143 kts | 78° |
| 2026-04-22 19:56 | 47.25930 | 11.33515 | 1913 ft | 129 kts | 81° |
| 2026-04-22 19:57 | 47.26038 | 11.34529 | 1899 ft | 75 kts | 82° |
| 2026-04-22 19:57 | 47.26102 | 11.35157 | 1910 ft | 43 kts | 81° |
| 2026-04-22 19:57 | 47.26126 | 11.35517 | 1904 ft | 22 kts | 104° |
| 2026-04-22 19:57 | 47.26138 | 11.35709 | 1898 ft | 15 kts | 39° |
| 2026-04-22 19:58 | 47.26165 | 11.35715 | 1901 ft | 2 kts | 324° |
| 2026-04-22 19:58 | 47.26167 | 11.35672 | 1901 ft | 17 kts | 262° |
| 2026-04-22 19:58 | 47.26137 | 11.35435 | 1905 ft | 28 kts | 259° |
| 2026-04-22 19:58 | 47.26074 | 11.35254 | 1904 ft | 13 kts | 184° |
| 2026-04-22 19:59 | 47.25986 | 11.35275 | 1901 ft | 13 kts | 170° |